tititudorancea.com
Station Historical Data
Daily Summary for July 27, 2018 Units:  Metric    English   Both
« Previous Day
Next Day »
Daily Weekly Monthly Yearly Custom
  High: Low: Average:
Temperature: -17.8 °C 4.7 °C 10.2 °C
Dew Point: -17.8 °C 3.9 °C 7 °C
Humidity: Humidity % 55 % 82 %
Wind Speed: 0 km/h 0 km/h 9.3 km/h
Wind Gust: 0 km/h - -
Wind:- - South
Pressure: 0 hPa 1010.7 hPa -
Precipitation: 0.51 mm    
Historical Graphs
 
 
Ararat weather Find more about Weather in Ararat, AU


 



 


Tabular Data for July 27, 2018
Time Temperature Dew Point Pressure Wind Wind Speed Wind Gust Humidity Rainfall Rate (Hourly)
-17.8 °C -17.8 °C 0 hPa Calm     Humidity % 0 mm
00:04 6.2 °C 5.5 °C 1014.8 hPa North 6.4 km/h 5.3 km/h 95 % 0 mm
00:09 6.4 °C 5.7 °C 1014.8 hPa North 7.4 km/h 4.5 km/h 95 % 0 mm
00:14 6.5 °C 5.8 °C 1014.8 hPa North 5.6 km/h 4 km/h 95 % 0 mm
00:19 6.4 °C 5.7 °C 1014.8 hPa North 6.4 km/h 5.3 km/h 95 % 0 mm
00:24 6.4 °C 5.7 °C 1014.8 hPa North 7.4 km/h 4.8 km/h 95 % 0 mm
00:29 6.3 °C 5.6 °C 1014.8 hPa North 3.7 km/h 2.7 km/h 95 % 0 mm
00:34 6.3 °C 5.6 °C 1014.8 hPa North 5.6 km/h 3.9 km/h 95 % 0 mm
00:39 6.7 °C 5.9 °C 1014.8 hPa North 5.6 km/h 3.2 km/h 95 % 0 mm
00:44 6.7 °C 6 °C 1014.8 hPa North 5.6 km/h 2.3 km/h 95 % 0 mm
00:49 6.7 °C 6 °C 1014.8 hPa North 5.6 km/h 2.6 km/h 95 % 0 mm
00:54 6.9 °C 6.2 °C 1014.8 hPa North 5.6 km/h 3.4 km/h 95 % 0 mm
00:59 6.9 °C 6.2 °C 1014.4 hPa North 5.6 km/h 2.4 km/h 95 % 0 mm
01:04 7 °C 6.3 °C 1014.4 hPa North 5.6 km/h 3.5 km/h 95 % 0.25 mm
01:09 7.1 °C 6.3 °C 1014.4 hPa North 5.6 km/h 4 km/h 95 % 0 mm
01:14 7 °C 6.3 °C 1014.4 hPa North 5.6 km/h 5 km/h 95 % 0 mm
01:19 6.9 °C 6.2 °C 1014.4 hPa North 5.6 km/h 3.4 km/h 95 % 0 mm
01:24 6.8 °C 6.1 °C 1014.4 hPa North 5.6 km/h 4.7 km/h 95 % 0 mm
01:29 6.7 °C 6 °C 1014.4 hPa North 5.6 km/h 4.3 km/h 95 % 0 mm
01:34 6.6 °C 5.9 °C 1014.4 hPa North 6.4 km/h 5.3 km/h 95 % 0 mm
01:39 6.5 °C 5.8 °C 1014.4 hPa North 5.6 km/h 5 km/h 95 % 0 mm
01:44 6.4 °C 5.7 °C 1014.1 hPa North 5.6 km/h 5 km/h 95 % 0 mm
01:49 6.3 °C 5.6 °C 1014.4 hPa North 5.6 km/h 4.5 km/h 95 % 0 mm
01:54 6.2 °C 5.5 °C 1014.1 hPa North 5.6 km/h 4 km/h 95 % 0 mm
01:59 6.1 °C 5.4 °C 1014.1 hPa North 5.6 km/h 5.1 km/h 95 % 0 mm
02:04 6.1 °C 5.4 °C 1014.1 hPa North 6.4 km/h 6.1 km/h 95 % 0 mm
02:09 6.1 °C 5.4 °C 1014.1 hPa North 5.6 km/h 5.5 km/h 95 % 0 mm
02:14 6.1 °C 5.4 °C 1014.1 hPa North 6.4 km/h 5.6 km/h 95 % 0 mm
02:19 6 °C 5.3 °C 1014.1 hPa North 5.6 km/h 2.3 km/h 95 % 0 mm
02:24 5.9 °C 5.2 °C 1014.1 hPa North 5.6 km/h 3.5 km/h 95 % 0 mm
02:29 5.7 °C 5 °C 1014.1 hPa North 5.6 km/h 2.7 km/h 95 % 0 mm
02:34 5.6 °C 4.9 °C 1014.1 hPa North 5.6 km/h 3.2 km/h 95 % 0 mm
02:39 5.6 °C 4.8 °C 1014.1 hPa North 5.6 km/h 3.1 km/h 95 % 0 mm
02:44 5.6 °C 4.8 °C 1013.8 hPa North 5.6 km/h 3.4 km/h 95 % 0 mm
02:49 5.6 °C 4.9 °C 1013.8 hPa North 5.6 km/h 2.9 km/h 95 % 0 mm
02:54 6.1 °C 5.5 °C 1013.8 hPa North 7.4 km/h 4.7 km/h 96 % 0 mm
02:59 7.1 °C 6.7 °C 1013.8 hPa North 9.3 km/h 6.9 km/h 97 % 0 mm
03:04 7.5 °C 6.9 °C 1013.8 hPa North 9.7 km/h 7.6 km/h 96 % 0 mm
03:09 7.6 °C 7 °C 1013.8 hPa North 7.4 km/h 5.1 km/h 96 % 0 mm
03:14 7.7 °C 6.9 °C 1013.8 hPa North 9.3 km/h 4.3 km/h 95 % 0 mm
03:19 7.7 °C 6.9 °C 1013.8 hPa North 5.6 km/h 1.9 km/h 95 % 0 mm
03:24 7.6 °C 6.8 °C 1013.4 hPa North 5.6 km/h 2.6 km/h 95 % 0 mm
03:29 7.4 °C 6.5 °C 1013.4 hPa North 4.8 km/h 2.1 km/h 94 % 0 mm
03:34 7.2 °C 6.3 °C 1013.4 hPa North 5.6 km/h 3.4 km/h 94 % 0 mm
03:39 6.7 °C 5.7 °C 1013.4 hPa North 5.6 km/h 4 km/h 93 % 0 mm
03:44 6.4 °C 5.3 °C 1013.4 hPa North 5.6 km/h 3.7 km/h 93 % 0 mm
03:49 6.1 °C 5.1 °C 1013.4 hPa North 6.4 km/h 4.7 km/h 93 % 0 mm
03:54 6.1 °C 5.2 °C 1013.4 hPa North 5.6 km/h 5 km/h 94 % 0 mm
03:59 6.1 °C 5.2 °C 1013.4 hPa North 6.4 km/h 5 km/h 94 % 0 mm
04:04 6.1 °C 5.3 °C 1013.4 hPa North 5.6 km/h 5 km/h 95 % 0 mm
04:09 6 °C 5.1 °C 1013.1 hPa North 6.4 km/h 4.7 km/h 94 % 0 mm
04:14 5.9 °C 5.1 °C 1013.1 hPa North 5.6 km/h 4.5 km/h 94 % 0 mm
04:19 5.9 °C 5.1 °C 1013.1 hPa North 5.6 km/h 3.2 km/h 94 % 0 mm
04:24 5.8 °C 4.9 °C 1013.1 hPa North 1.9 km/h 1.9 km/h 94 % 0 mm
04:29 5.7 °C 4.8 °C 1013.1 hPa North 5.6 km/h 2.4 km/h 94 % 0 mm
04:34 5.6 °C 4.7 °C 1013.1 hPa North 1.9 km/h 0.3 km/h 94 % 0 mm
04:39 5.5 °C 4.6 °C 1013.1 hPa North 1.6 km/h 1.8 km/h 94 % 0 mm
04:44 5.4 °C 4.5 °C 1013.4 hPa North 3.7 km/h 0.3 km/h 94 % 0 mm
04:49 5.2 °C 4.3 °C 1013.1 hPa Calm     94 % 0 mm
04:54 5.1 °C 4.2 °C 1013.1 hPa Calm     94 % 0 mm
04:59 4.9 °C 4.8 °C 1013.1 hPa North 5.6 km/h 2.7 km/h 99 % 0 mm
05:04 4.8 °C 3.9 °C 1013.1 hPa North 5.6 km/h 5.3 km/h 94 % 0 mm
05:09 4.9 °C 4.2 °C 1013.1 hPa North 5.6 km/h 4 km/h 95 % 0 mm
05:14 5.2 °C 4.5 °C 1012.8 hPa North 5.6 km/h 3.5 km/h 95 % 0 mm
05:19 5.5 °C 4.8 °C 1012.8 hPa North 5.6 km/h 4.8 km/h 95 % 0 mm
05:24 5.7 °C 4.9 °C 1012.8 hPa North 5.6 km/h 3.4 km/h 95 % 0 mm
05:29 5.7 °C 4.9 °C 1012.8 hPa North 5.6 km/h 4.3 km/h 95 % 0 mm
05:34 5.7 °C 4.9 °C 1012.8 hPa North 5.6 km/h 2.6 km/h 95 % 0 mm
05:39 5.7 °C 4.9 °C 1012.8 hPa North 1.9 km/h   95 % 0 mm
05:44 5.5 °C 4.6 °C 1012.8 hPa North 1.9 km/h 1.6 km/h 94 % 0 mm
05:49 5.4 °C 4.7 °C 1012.8 hPa North 3.7 km/h 1.8 km/h 95 % 0 mm
05:54 5.3 °C 4.6 °C 1012.8 hPa North 1.6 km/h   95 % 0.25 mm
05:59 5.2 °C 4.5 °C 1012.8 hPa North 3.7 km/h 2.7 km/h 95 % 0.25 mm
06:04 5.1 °C 4.4 °C 1012.8 hPa North 3.2 km/h 2.1 km/h 95 % 0.25 mm
06:09 4.9 °C 4.1 °C 1012.8 hPa North 4.8 km/h 2.6 km/h 94 % 0.25 mm
06:14 5 °C 4.3 °C 1012.8 hPa North 5.6 km/h 2.6 km/h 95 % 0.25 mm
06:19 4.9 °C 4 °C 1012.8 hPa North 3.7 km/h 0.8 km/h 94 % 0.25 mm
06:24 4.7 °C 4 °C 1013.1 hPa North 3.7 km/h 2.6 km/h 95 % 0.25 mm
06:29 4.7 °C 4 °C 1013.1 hPa North 5.6 km/h 3.2 km/h 95 % 0.25 mm
06:34 4.8 °C 4.1 °C 1013.1 hPa North 6.4 km/h 4.8 km/h 95 % 0.25 mm
06:39 4.8 °C 4.1 °C 1013.1 hPa North 5.6 km/h 5 km/h 95 % 0.25 mm
06:44 4.8 °C 4.1 °C 1013.1 hPa North 7.4 km/h 5.1 km/h 95 % 0.25 mm
06:49 4.8 °C 4.1 °C 1013.1 hPa North 7.4 km/h 5.3 km/h 95 % 0.25 mm
06:54 4.9 °C 4.2 °C 1013.1 hPa North 7.4 km/h 6.1 km/h 95 % 0 mm
06:59 5 °C 4.3 °C 1013.1 hPa North 7.4 km/h 6.4 km/h 95 % 0 mm
07:04 5.2 °C 4.6 °C 1013.1 hPa North 7.4 km/h 6 km/h 96 % 0 mm
07:09 5.3 °C 4.7 °C 1013.1 hPa North 8 km/h 6.1 km/h 96 % 0 mm
07:14 5.4 °C 4.8 °C 1013.1 hPa North 7.4 km/h 5.5 km/h 96 % 0 mm
07:19 5.6 °C 4.9 °C 1013.1 hPa North 7.4 km/h 5.5 km/h 96 % 0 mm
07:24 5.7 °C 5.1 °C 1013.1 hPa North 5.6 km/h 4.3 km/h 96 % 0 mm
07:29 5.8 °C 5.2 °C 1013.1 hPa North 6.4 km/h 5.5 km/h 96 % 0 mm
07:34 5.9 °C 5.3 °C 1013.1 hPa North 7.4 km/h 5.8 km/h 96 % 0 mm
07:39 6 °C 5.4 °C 1013.1 hPa North 5.6 km/h 4.5 km/h 96 % 0 mm
07:44 5.9 °C 5.2 °C 1013.4 hPa North 6.4 km/h 6.9 km/h 95 % 0 mm
07:49 5.9 °C 5.2 °C 1013.4 hPa North 5.6 km/h 5 km/h 95 % 0 mm
07:54 5.9 °C 5.2 °C 1013.4 hPa North 6.4 km/h 4 km/h 95 % 0 mm
07:59 5.9 °C 5.2 °C 1013.4 hPa North 7.4 km/h 4.7 km/h 95 % 0 mm
08:04 6.1 °C 5.4 °C 1013.4 hPa North 7.4 km/h 6 km/h 96 % 0 mm
08:09 6.3 °C 5.7 °C 1013.4 hPa North 9.3 km/h 6.1 km/h 96 % 0 mm
08:14 6.5 °C 5.9 °C 1013.4 hPa North 9.3 km/h 6.4 km/h 96 % 0 mm
08:19 6.7 °C 6.1 °C 1013.4 hPa North 9.7 km/h 6.1 km/h 96 % 0 mm
08:24 7 °C 6.4 °C 1013.4 hPa North 13 km/h 5.3 km/h 96 % 0 mm
08:29 7.2 °C 6.6 °C 1013.8 hPa North 9.3 km/h 5.6 km/h 96 % 0 mm
08:34 7.3 °C 6.7 °C 1013.8 hPa North 7.4 km/h 5 km/h 96 % 0 mm
08:39 7.4 °C 6.8 °C 1013.4 hPa North 7.4 km/h 5.3 km/h 96 % 0 mm
08:44 7.6 °C 6.8 °C 1013.8 hPa North 9.3 km/h 9.3 km/h 95 % 0 mm
08:49 7.7 °C 6.9 °C 1013.8 hPa North 7.4 km/h 4.8 km/h 95 % 0 mm
08:54 7.8 °C 7 °C 1013.8 hPa North 9.7 km/h 6.4 km/h 95 % 0 mm
08:59 7.9 °C 7 °C 1013.8 hPa North 7.4 km/h 5.3 km/h 94 % 0 mm
09:04 8 °C 7.1 °C 1013.8 hPa North 11.1 km/h 7.7 km/h 94 % 0 mm
09:09 8.1 °C 7.1 °C 1013.8 hPa North 7.4 km/h 6.6 km/h 93 % 0 mm
09:14 8.3 °C 7.2 °C 1013.8 hPa North 9.3 km/h 6.4 km/h 93 % 0 mm
09:19 8.4 °C 7.2 °C 1013.8 hPa North 7.4 km/h 4.2 km/h 92 % 0 mm
09:24 8.6 °C 7.4 °C 1013.8 hPa North 11.1 km/h 7.1 km/h 92 % 0 mm
09:29 8.9 °C 7.5 °C 1014.1 hPa North 11.3 km/h 5.3 km/h 91 % 0 mm
09:34 9.1 °C 7.6 °C 1014.1 hPa North 9.7 km/h 6.8 km/h 90 % 0 mm
09:39 9.3 °C 7.6 °C 1014.1 hPa North 6.4 km/h 3.7 km/h 89 % 0 mm
09:44 9.6 °C 7.7 °C 1014.1 hPa North 9.3 km/h 5 km/h 88 % 0 mm
09:49 9.7 °C 7.7 °C 1014.1 hPa North 13 km/h 8.7 km/h 87 % 0 mm
09:54 9.7 °C 7.3 °C 1014.1 hPa North 14.8 km/h 11.7 km/h 85 % 0 mm
09:59 9.7 °C 7.5 °C 1014.1 hPa North 9.3 km/h 6 km/h 86 % 0 mm
10:04 9.8 °C 7.4 °C 1014.1 hPa North 11.1 km/h 6.8 km/h 85 % 0 mm
10:09 9.9 °C 7.5 °C 1014.1 hPa North 7.4 km/h 6.1 km/h 85 % 0 mm
10:14 9.9 °C 7.6 °C 1014.1 hPa North 11.1 km/h 5.6 km/h 85 % 0 mm
10:19 10 °C 7.6 °C 1014.1 hPa North 7.4 km/h 6 km/h 85 % 0 mm
10:24 10.2 °C 7.8 °C 1014.1 hPa North 11.1 km/h 8.2 km/h 85 % 0 mm
10:29 10.3 °C 7.7 °C 1014.1 hPa North 16.1 km/h 9.7 km/h 84 % 0 mm
10:34 10.5 °C 7.7 °C 1014.1 hPa North 14.8 km/h 10.3 km/h 83 % 0 mm
10:39 10.5 °C 7.7 °C 1014.1 hPa North 13 km/h 5.6 km/h 83 % 0 mm
10:44 10.7 °C 7.9 °C 1014.1 hPa North 9.3 km/h 7.9 km/h 83 % 0 mm
10:49 11.2 °C 8.4 °C 1014.1 hPa North 11.1 km/h 8.4 km/h 83 % 0 mm
10:54 11.6 °C 8.6 °C 1014.1 hPa North 9.7 km/h 9 km/h 82 % 0 mm
10:59 11.8 °C 8.4 °C 1014.1 hPa North 13 km/h 11.3 km/h 80 % 0 mm
11:04 11.9 °C 8.7 °C 1014.1 hPa North 11.3 km/h 9.5 km/h 81 % 0 mm
11:09 12 °C 8.8 °C 1014.1 hPa North 12.9 km/h 10.5 km/h 81 % 0 mm
11:14 12.2 °C 9 °C 1013.8 hPa North 13 km/h 8.9 km/h 81 % 0 mm
11:19 12.4 °C 9.2 °C 1013.8 hPa North 9.7 km/h 5 km/h 81 % 0 mm
11:24 12.4 °C 8.7 °C 1013.8 hPa North 11.3 km/h 7.2 km/h 78 % 0 mm
11:29 12.4 °C 8.7 °C 1013.8 hPa North 11.1 km/h 8.7 km/h 78 % 0 mm
11:34 12.6 °C 8.8 °C 1013.8 hPa North 5.6 km/h 3.5 km/h 78 % 0 mm
11:39 12.8 °C 9.1 °C 1013.4 hPa North 11.1 km/h 8.5 km/h 78 % 0 mm
11:44 13.2 °C 8.8 °C 1013.4 hPa North 13 km/h 9.7 km/h 75 % 0 mm
11:49 13.4 °C 9.3 °C 1013.4 hPa North 9.3 km/h 4.2 km/h 76 % 0 mm
11:54 13.9 °C 9.6 °C 1013.4 hPa North 8 km/h 7.1 km/h 75 % 0 mm
11:59 14 °C 9.1 °C 1013.1 hPa North 11.3 km/h 7.9 km/h 72 % 0 mm
12:04 14.4 °C 9.2 °C 1013.1 hPa North 14.8 km/h 10.3 km/h 71 % 0 mm
12:09 14.5 °C 8.9 °C 1013.1 hPa NNW 14.5 km/h 9.7 km/h 69 % 0 mm
12:14 14.7 °C 9.3 °C 1013.1 hPa NNW 13 km/h 6.9 km/h 70 % 0 mm
12:19 14.8 °C 9 °C 1013.1 hPa NNW 14.8 km/h 7.9 km/h 68 % 0 mm
12:24 14.9 °C 8.8 °C 1012.8 hPa North 16.7 km/h 10 km/h 67 % 0 mm
12:29 14.9 °C 9.1 °C 1012.8 hPa NNW 14.8 km/h 7.2 km/h 68 % 0 mm
12:34 15.1 °C 9 °C 1012.8 hPa NNW 11.1 km/h 5 km/h 67 % 0 mm
12:39 15.4 °C 9.1 °C 1012.8 hPa NNW 11.1 km/h 7.1 km/h 66 % 0 mm
12:44 15.3 °C 9 °C 1012.4 hPa NW 16.7 km/h 10.8 km/h 66 % 0 mm
12:49 15.2 °C 9.1 °C 1012.4 hPa NW 14.5 km/h 8 km/h 67 % 0 mm
12:54 15.2 °C 8.9 °C 1012.4 hPa NW 11.3 km/h 9.2 km/h 66 % 0 mm
12:59 15.1 °C 8.9 °C 1012.4 hPa NW 5.6 km/h 3.5 km/h 67 % 0 mm
13:04 15.2 °C 9.1 °C 1012.4 hPa NW 14.5 km/h 12.2 km/h 67 % 0 mm
13:09 15.1 °C 8.9 °C 1012.1 hPa NW 16.7 km/h 8 km/h 67 % 0 mm
13:14 15.1 °C 9.2 °C 1012.1 hPa NW 13 km/h 9.5 km/h 68 % 0 mm
13:19 15.4 °C 9.1 °C 1012.1 hPa NW 14.8 km/h 8.9 km/h 66 % 0 mm
13:24 15.7 °C 9.1 °C 1012.1 hPa NW 12.9 km/h 8.2 km/h 65 % 0 mm
13:29 15.8 °C 9.5 °C 1011.7 hPa North 7.4 km/h 5.1 km/h 66 % 0 mm
13:34 16.1 °C 8.8 °C 1011.7 hPa NW 13 km/h 9.5 km/h 62 % 0 mm
13:39 16.2 °C 8.9 °C 1011.7 hPa NW 7.4 km/h 6.4 km/h 62 % 0 mm
13:44 16.3 °C 8.7 °C 1011.7 hPa NW 14.8 km/h 8.2 km/h 61 % 0 mm
13:49 16.4 °C 8.3 °C 1011.7 hPa North 14.8 km/h 8 km/h 59 % 0 mm
13:54 16.5 °C 8.2 °C 1011.4 hPa North 18.5 km/h 14.6 km/h 58 % 0 mm
13:59 16.6 °C 8.3 °C 1011.4 hPa NNW 18.5 km/h 11.3 km/h 58 % 0 mm
14:04 16.7 °C 7.8 °C 1011.4 hPa North 18.5 km/h 10.8 km/h 56 % 0 mm
14:09 16.6 °C 7.5 °C 1011.4 hPa NNW 20.4 km/h 11.4 km/h 55 % 0 mm
14:14 16.5 °C 8.2 °C 1011.4 hPa NNW 16.7 km/h 9.3 km/h 58 % 0 mm
14:19 16.6 °C 8.3 °C 1011.4 hPa North 20.4 km/h 12.2 km/h 58 % 0 mm
14:24 16.7 °C 8.3 °C 1011.4 hPa North 14.8 km/h 7.1 km/h 58 % 0 mm
14:29 16.8 °C 7.9 °C 1011.1 hPa North 13 km/h 8.9 km/h 56 % 0 mm
14:34 16.6 °C 7.7 °C 1011.4 hPa NNW 18.5 km/h 15 km/h 56 % 0 mm
14:39 16.4 °C 7.9 °C 1011.1 hPa NNW 20.4 km/h 12.1 km/h 57 % 0 mm
14:44 16.5 °C 7.9 °C 1011.1 hPa NNW 16.7 km/h 10.9 km/h 57 % 0 mm
14:49 16.5 °C 7.9 °C 1011.1 hPa NNW 22.2 km/h 7.7 km/h 57 % 0 mm
14:54 16.2 °C 7.9 °C 1011.1 hPa NW 18.5 km/h 8.5 km/h 58 % 0 mm
14:59 16.2 °C 8.2 °C 1011.1 hPa North 9.3 km/h 8.2 km/h 59 % 0 mm
15:04 16.2 °C 8.4 °C 1011.1 hPa NNW 14.8 km/h 11.3 km/h 60 % 0 mm
15:09 16.2 °C 8.2 °C 1011.1 hPa North 24.1 km/h 11.4 km/h 59 % 0 mm
15:14 16.1 °C 8.3 °C 1011.1 hPa North 16.7 km/h 10.9 km/h 60 % 0 mm
15:19 16.1 °C 8.6 °C 1011.1 hPa North 16.7 km/h 8.9 km/h 61 % 0 mm
15:24 16 °C 8.5 °C 1011.1 hPa North 14.8 km/h 10.1 km/h 61 % 0 mm
15:29 16 °C 8.7 °C 1011.1 hPa North 14.8 km/h 13.2 km/h 62 % 0 mm
15:34 15.9 °C 8.6 °C 1011.1 hPa NW 20.4 km/h 14 km/h 62 % 0 mm
15:39 15.8 °C 8.8 °C 1011.1 hPa North 22.2 km/h 10.3 km/h 63 % 0 mm
15:44 15.8 °C 8.5 °C 1011.1 hPa North 20.9 km/h 13.5 km/h 62 % 0 mm
15:49 15.7 °C 8.9 °C 1011.1 hPa NNW 18.5 km/h 12.9 km/h 64 % 0 mm
15:54 15.8 °C 9 °C 1011.1 hPa North 18.5 km/h 11.9 km/h 64 % 0 mm
15:59 15.7 °C 9.2 °C 1010.7 hPa NNW 18.5 km/h 12.1 km/h 65 % 0 mm
16:04 15.7 °C 9.3 °C 1010.7 hPa North 14.8 km/h 9.7 km/h 66 % 0 mm
16:09 15.7 °C 9.6 °C 1010.7 hPa North 22.5 km/h 13.5 km/h 67 % 0 mm
16:14 15.6 °C 9.5 °C 1010.7 hPa North 18.5 km/h 9.8 km/h 67 % 0 mm
16:19 15.7 °C 9.6 °C 1010.7 hPa North 14.8 km/h 13 km/h 67 % 0 mm
16:24 15.4 °C 9.3 °C 1010.7 hPa North 16.7 km/h 11.3 km/h 67 % 0 mm
16:29 15.3 °C 9.4 °C 1010.7 hPa North 18.5 km/h 17.1 km/h 68 % 0 mm
16:34 15.3 °C 9.4 °C 1010.7 hPa North 16.1 km/h 10.5 km/h 68 % 0 mm
16:39 15.3 °C 9.4 °C 1010.7 hPa North 22.5 km/h 13.7 km/h 68 % 0 mm
16:44 15.2 °C 9.3 °C 1010.7 hPa North 14.8 km/h 9.3 km/h 68 % 0 mm
16:49 15.1 °C 9.2 °C 1010.7 hPa NNW 22.2 km/h 11.6 km/h 68 % 0 mm
16:54 15 °C 9.1 °C 1011.1 hPa North 13 km/h 9 km/h 68 % 0 mm
16:59 14.9 °C 9.1 °C 1011.1 hPa NNW 18.5 km/h 6 km/h 68 % 0 mm
17:04 14.9 °C 9.1 °C 1011.1 hPa NNW 14.8 km/h 3.1 km/h 68 % 0 mm
17:09 14.9 °C 9.1 °C 1011.1 hPa NNW 9.3 km/h 7.7 km/h 68 % 0 mm
17:14 14.7 °C 9.1 °C 1011.1 hPa North 11.1 km/h 4.3 km/h 69 % 0 mm
17:19 14.6 °C 8.9 °C 1011.1 hPa North 9.3 km/h 4.2 km/h 69 % 0 mm
17:24 14.4 °C 9 °C 1011.1 hPa North 7.4 km/h 4.8 km/h 70 % 0 mm
17:29 14.2 °C 8.8 °C 1011.1 hPa North 5.6 km/h 5 km/h 70 % 0 mm
17:34 13.9 °C 8.8 °C 1011.1 hPa North 6.4 km/h 4.2 km/h 71 % 0 mm
17:39 13.7 °C 8.8 °C 1011.1 hPa North 7.4 km/h 4 km/h 72 % 0 mm
17:44 13.6 °C 8.8 °C 1011.1 hPa North 9.3 km/h 8.9 km/h 73 % 0 mm
17:49 13.4 °C 8.9 °C 1011.1 hPa North 11.1 km/h 8 km/h 74 % 0 mm
17:54 13.3 °C 8.8 °C 1011.1 hPa North 11.1 km/h 6 km/h 74 % 0 mm
17:59 13.2 °C 8.7 °C 1011.1 hPa North 8 km/h 5.5 km/h 74 % 0 mm
18:04 13.1 °C 8.8 °C 1011.1 hPa North 5.6 km/h 4.8 km/h 75 % 0 mm
18:09 13 °C 8.7 °C 1011.1 hPa North 7.4 km/h 4.3 km/h 75 % 0 mm
18:14 12.9 °C 8.6 °C 1011.1 hPa North 7.4 km/h 5 km/h 75 % 0 mm
18:19 12.8 °C 8.7 °C 1011.1 hPa North 8 km/h 6.3 km/h 76 % 0 mm
18:24 12.8 °C 8.7 °C 1011.1 hPa North 9.3 km/h 5.5 km/h 76 % 0 mm
18:29 12.8 °C 8.7 °C 1011.1 hPa North 9.3 km/h 3.7 km/h 76 % 0 mm
18:34 12.7 °C 8.6 °C 1011.4 hPa North 6.4 km/h 3.4 km/h 76 % 0 mm
18:39 12.7 °C 8.6 °C 1011.1 hPa North 7.4 km/h 4.7 km/h 76 % 0 mm
18:44 12.6 °C 8.5 °C 1011.4 hPa North 14.8 km/h 7.1 km/h 76 % 0 mm
18:49 12.6 °C 8.4 °C 1011.4 hPa North 8 km/h 6 km/h 76 % 0 mm
18:54 12.5 °C 8.6 °C 1011.4 hPa North 13 km/h 4.8 km/h 77 % 0 mm
18:59 12.4 °C 8.3 °C 1011.4 hPa North 6.4 km/h 5.1 km/h 76 % 0 mm
19:04 12.4 °C 8.4 °C 1011.4 hPa North 7.4 km/h 5.5 km/h 77 % 0 mm
19:09 12.4 °C 8.4 °C 1011.4 hPa North 11.1 km/h 3.2 km/h 77 % 0 mm
19:14 12.3 °C 8.2 °C 1011.4 hPa North 5.6 km/h 4 km/h 76 % 0 mm
19:19 12.3 °C 8.3 °C 1011.4 hPa North 5.6 km/h 5.3 km/h 77 % 0 mm
19:24 12.2 °C 8.3 °C 1011.4 hPa North 9.3 km/h 4.5 km/h 77 % 0 mm
19:29 12.1 °C 8.2 °C 1011.4 hPa North 5.6 km/h 4.8 km/h 77 % 0 mm
19:34 12 °C 8.1 °C 1011.4 hPa North 6.4 km/h 4.2 km/h 77 % 0 mm
19:39 12 °C 8.1 °C 1011.4 hPa North 5.6 km/h 5.5 km/h 77 % 0 mm
19:44 11.9 °C 8.2 °C 1011.4 hPa North 5.6 km/h 3.9 km/h 78 % 0 mm
19:49 11.8 °C 8.1 °C 1011.4 hPa North 5.6 km/h 5.3 km/h 78 % 0 mm
19:54 11.7 °C 8 °C 1011.7 hPa North 11.3 km/h 6.4 km/h 78 % 0 mm
19:59 11.7 °C 7.9 °C 1011.7 hPa North 5.6 km/h 5.6 km/h 78 % 0 mm
20:04 11.7 °C 7.9 °C 1011.7 hPa North 7.4 km/h 5.5 km/h 78 % 0 mm
20:09 11.7 °C 7.9 °C 1011.7 hPa North 9.3 km/h 6 km/h 78 % 0 mm
20:14 11.7 °C 8 °C 1011.7 hPa North 7.4 km/h 5.5 km/h 78 % 0 mm
20:19 11.7 °C 8 °C 1011.7 hPa North 7.4 km/h 4.3 km/h 78 % 0 mm
20:24 11.7 °C 7.8 °C 1011.7 hPa North 5.6 km/h 4.7 km/h 77 % 0 mm
20:29 11.6 °C 7.7 °C 1011.7 hPa North 7.4 km/h 5.3 km/h 77 % 0 mm
20:34 11.6 °C 7.8 °C 1011.7 hPa North 7.4 km/h 5.1 km/h 78 % 0 mm
20:39 11.5 °C 7.8 °C 1011.7 hPa North 9.3 km/h 4.8 km/h 78 % 0 mm
20:44 11.4 °C 7.7 °C 1012.1 hPa North 7.4 km/h 4.7 km/h 78 % 0 mm
20:49 11.4 °C 7.7 °C 1012.1 hPa North 7.4 km/h 4.2 km/h 78 % 0 mm
20:54 11.3 °C 7.6 °C 1012.1 hPa North 5.6 km/h 3.9 km/h 78 % 0 mm
20:59 11.2 °C 7.4 °C 1012.1 hPa North 9.3 km/h 4.8 km/h 78 % 0 mm
21:04 11.2 °C 7.4 °C 1012.1 hPa North 6.4 km/h 5.8 km/h 78 % 0 mm
21:09 11.1 °C 7.4 °C 1012.1 hPa North 8 km/h 5.3 km/h 78 % 0 mm
21:14 11 °C 7.3 °C 1012.1 hPa North 7.4 km/h 6.1 km/h 78 % 0 mm
21:19 10.9 °C 7.2 °C 1012.1 hPa North 7.4 km/h 6.6 km/h 78 % 0 mm
21:24 10.7 °C 7.2 °C 1012.1 hPa North 7.4 km/h 5.3 km/h 79 % 0 mm
21:29 10.6 °C 7.1 °C 1012.1 hPa North 7.4 km/h 6.1 km/h 79 % 0 mm
21:34 10.4 °C 6.9 °C 1012.1 hPa North 8 km/h 6.6 km/h 79 % 0 mm
21:39 10.3 °C 7 °C 1012.1 hPa North 8 km/h 6.6 km/h 80 % 0 mm
21:41 10.2 °C 6.9 °C 1012.1 hPa North 7.4 km/h 6.6 km/h 80 % 0 mm
21:54 9.7 °C 6.7 °C 1012.1 hPa North 7.4 km/h 6.9 km/h 82 % 0 mm
21:58 9.6 °C 6.6 °C 1012.4 hPa North 8 km/h 7.2 km/h 82 % 0 mm
22:04 9.4 °C 6.7 °C 1012.4 hPa North 8 km/h 7.4 km/h 83 % 0 mm
22:09 9.3 °C 6.6 °C 1012.1 hPa North 9.3 km/h 7.4 km/h 83 % 0 mm
22:14 9.3 °C 6.6 °C 1012.4 hPa North 7.4 km/h 6.8 km/h 83 % 0 mm
22:19 9.4 °C 6.7 °C 1012.4 hPa North 9.7 km/h 6.4 km/h 83 % 0 mm
22:24 9.4 °C 6.5 °C 1012.1 hPa North 7.4 km/h 6.3 km/h 82 % 0 mm
22:29 9.5 °C 6.6 °C 1012.1 hPa North 9.3 km/h 6.8 km/h 82 % 0 mm
22:34 9.6 °C 6.7 °C 1012.1 hPa North 7.4 km/h 5.5 km/h 82 % 0 mm
22:39 9.8 °C 6.7 °C 1012.1 hPa North 7.4 km/h 5 km/h 81 % 0 mm
22:44 9.8 °C 6.6 °C 1012.1 hPa North 11.1 km/h 5.8 km/h 80 % 0 mm
22:49 9.9 °C 6.6 °C 1012.1 hPa North 7.4 km/h 5.3 km/h 80 % 0 mm
22:54 10 °C 6.5 °C 1012.1 hPa North 9.3 km/h 6 km/h 79 % 0 mm
22:59 10.1 °C 6.4 °C 1012.1 hPa North 7.4 km/h 4.5 km/h 78 % 0 mm
23:04 10.2 °C 6.6 °C 1012.1 hPa North 7.4 km/h 5.3 km/h 78 % 0 mm
23:09 10.2 °C 6.4 °C 1012.1 hPa North 13 km/h 7.6 km/h 77 % 0 mm
23:14 10.3 °C 6.4 °C 1012.1 hPa North 11.1 km/h 6.6 km/h 77 % 0 mm
23:19 10.3 °C 6.5 °C 1012.1 hPa North 8 km/h 6.6 km/h 77 % 0 mm
23:24 10.3 °C 6.3 °C 1012.1 hPa North 9.3 km/h 7.2 km/h 76 % 0 mm
23:29 10.3 °C 6.3 °C 1012.1 hPa North 8 km/h 6.4 km/h 76 % 0 mm
23:34 10.3 °C 6.4 °C 1012.1 hPa North 13 km/h 6.8 km/h 77 % 0 mm
23:39 10.2 °C 6.4 °C 1012.1 hPa North 11.1 km/h 6.8 km/h 77 % 0 mm
23:44 10.2 °C 6.4 °C 1012.1 hPa NNW 13 km/h 5.6 km/h 77 % 0 mm
23:49 10.2 °C 6.4 °C 1012.1 hPa NNW 9.3 km/h 5.1 km/h 77 % 0 mm
23:54 10.1 °C 6.3 °C 1012.1 hPa NNW 13 km/h 6.9 km/h 77 % 0 mm
23:59 10.1 °C 6.3 °C 1011.7 hPa NNW 11.1 km/h 7.4 km/h 77 % 0 mm
Ararat Weather
Compliments of Weather Underground - 2.25 mb
Click here to send mail.


ABOUT

Live weather data from Ararat, Victoria, Australia, 3377
Data uploaded from Cumulus every 5 minutes to Weather Underground.
This site then downloads the raw data for formatting and display.
Metric and imperial data can be displayed. Graphs and historical data available.
Includes Sun and Moon times and rain image live from BOM.

Check out Ararat Weather on Facebook, Twitter and Google +

Help support ongoing costs by checking out the ads





Follow @AraratWeather